Time;durP1;ratioP1;P1;durP2;ratioP2;P2;SDS_P1;SDS_P2;PMS_P1;PMS_P2;Temp;Humidity;BMP_temperature;BMP_pressure;BME280_temperature;BME280_humidity;BME280_pressure;Samples;Min_cycle;Max_cycle;Signal;HPM_P1;HPM_P2
2022/01/26 00:06:08;;;;;;;30.17;16.07;;;;;;;-0.31;100.00;97681.94;5013858;28;20458;-75
2022/01/26 00:08:39;;;;;;;26.10;16.50;;;;;;;-0.65;100.00;97640.06;5014049;28;20422;-76
2022/01/26 00:11:06;;;;;;;25.73;15.17;;;;;;;-0.72;100.00;97631.56;5012377;28;20482;-75
2022/01/26 00:13:33;;;;;;;18.13;14.07;;;;;;;-0.54;100.00;97655.88;5012498;28;20447;-76
2022/01/26 00:16:03;;;;;;;24.97;14.50;;;;;;;-0.48;100.00;97671.38;5012257;28;20465;-76
2022/01/26 00:18:33;;;;;;;21.23;12.57;;;;;;;-0.85;100.00;97634.34;4996630;28;20497;-77
2022/01/26 00:21:28;;;;;;;19.77;12.87;;;;;;;-0.74;100.00;97658.78;5013529;28;20497;-75
2022/01/26 00:29:12;;;;;;;19.43;12.60;;;;;;;-0.78;100.00;97637.66;5012408;28;20526;-77
2022/01/26 00:42:51;;;;;;;17.20;11.10;;;;;;;-0.98;100.00;97642.31;5013371;28;20447;-77
2022/01/26 00:45:22;;;;;;;19.87;11.80;;;;;;;-0.87;100.00;97657.13;5012084;28;20554;-77
2022/01/26 00:47:49;;;;;;;22.17;12.90;;;;;;;-1.02;100.00;97638.56;5011528;28;20439;-75
2022/01/26 00:50:16;;;;;;;24.10;12.10;;;;;;;-1.34;100.00;97593.84;5011587;28;20526;-77
2022/01/26 00:52:46;;;;;;;17.00;11.80;;;;;;;-0.88;100.00;97652.97;5011448;28;20493;-77
2022/01/26 00:55:16;;;;;;;19.93;13.00;;;;;;;-1.04;100.00;97646.56;4995418;28;20857;-76
2022/01/26 00:57:44;;;;;;;14.87;11.53;;;;;;;-0.96;100.00;97651.44;5012823;28;20781;-75
2022/01/26 01:00:21;;;;;;;22.30;13.60;;;;;;;-0.81;100.00;97679.63;5011434;28;20431;-77
2022/01/26 01:02:50;;;;;;;19.60;13.03;;;;;;;-0.75;100.00;97685.75;5011528;28;20855;-77
2022/01/26 01:05:26;;;;;;;18.90;13.17;;;;;;;-1.07;100.00;97657.41;4995080;28;20498;-75
2022/01/26 01:07:59;;;;;;;24.47;12.10;;;;;;;-0.87;100.00;97670.13;5012501;28;20505;-75
2022/01/26 01:10:26;;;;;;;20.13;12.60;;;;;;;-0.82;100.00;97688.41;5012501;28;20845;-76
2022/01/26 01:12:56;;;;;;;18.83;11.43;;;;;;;-1.02;100.00;97659.34;5010836;28;20884;-75
2022/01/26 01:15:25;;;;;;;16.33;11.63;;;;;;;-0.84;100.00;97693.03;4996081;28;20424;-76
2022/01/26 01:18:03;;;;;;;17.20;10.70;;;;;;;-1.16;100.00;97642.34;5011258;28;20947;-76
2022/01/26 01:21:09;;;;;;;15.67;10.83;;;;;;;-1.01;100.00;97645.34;4996091;28;20904;-76
2022/01/26 01:31:13;;;;;;;14.70;11.77;;;;;;;-1.22;100.00;97621.44;5011945;28;20442;-75
2022/01/26 01:33:44;;;;;;;12.80;9.50;;;;;;;-1.14;100.00;97624.75;5012034;28;20974;-76
2022/01/26 01:36:12;;;;;;;14.73;9.80;;;;;;;-0.93;100.00;97677.00;5012416;28;20415;-76
2022/01/26 01:38:41;;;;;;;17.20;10.07;;;;;;;-0.93;100.00;97674.41;5010908;28;20867;-77
2022/01/26 01:41:09;;;;;;;15.47;9.90;;;;;;;-1.16;100.00;97634.56;5010452;28;20510;-75
2022/01/26 01:43:37;;;;;;;12.20;9.20;;;;;;;-0.86;100.00;97665.72;5011880;28;20549;-75
2022/01/26 01:46:05;;;;;;;14.63;10.40;;;;;;;-1.17;100.00;97625.19;4994113;28;20463;-76
2022/01/26 01:48:33;;;;;;;16.53;9.80;;;;;;;-1.33;100.00;97614.41;5011679;28;20832;-75
2022/01/26 01:51:05;;;;;;;13.80;7.87;;;;;;;-1.29;100.00;97628.53;4994007;28;20479;-75
2022/01/26 01:53:41;;;;;;;14.03;10.90;;;;;;;-1.22;100.00;97647.38;4994045;28;20570;-75
2022/01/26 01:56:18;;;;;;;12.90;9.27;;;;;;;-1.28;100.00;97637.09;5009638;28;20502;-75
2022/01/26 01:58:44;;;;;;;14.40;9.60;;;;;;;-1.18;100.00;97654.75;5010641;28;20529;-74
2022/01/26 02:01:11;;;;;;;10.57;8.77;;;;;;;-1.29;100.00;97635.50;5011512;28;20427;-74
2022/01/26 02:03:38;;;;;;;13.20;9.37;;;;;;;-1.32;100.00;97641.94;5010070;28;20466;-75
2022/01/26 02:06:05;;;;;;;16.90;10.33;;;;;;;-1.34;100.00;97627.56;5010240;28;20538;-75
2022/01/26 02:08:31;;;;;;;11.73;8.70;;;;;;;-1.25;100.00;97640.03;4993840;28;20463;-76
2022/01/26 02:10:58;;;;;;;11.10;8.60;;;;;;;-1.23;100.00;97653.56;5010166;28;20859;-75
2022/01/26 02:13:33;;;;;;;12.70;6.60;;;;;;;-1.30;100.00;97657.28;4993673;28;20558;-76
2022/01/26 02:57:41;;;;;;;11.23;7.70;;;;;;;-1.57;100.00;97631.63;5009869;28;20916;-75
2022/01/26 03:02:53;;;;;;;14.90;9.87;;;;;;;-1.33;100.00;97676.66;5009824;28;20541;-75
2022/01/26 03:05:24;;;;;;;10.90;7.73;;;;;;;-1.44;100.00;97646.25;4993472;28;20601;-75
2022/01/26 03:07:59;;;;;;;14.90;9.63;;;;;;;-1.46;100.00;97639.72;5013364;28;20423;-76
2022/01/26 03:10:37;;;;;;;11.03;9.20;;;;;;;-1.48;100.00;97632.13;4997370;28;20458;-76
2022/01/26 03:13:15;;;;;;;10.67;7.50;;;;;;;-1.32;100.00;97654.09;5014605;28;20864;-75
2022/01/26 03:15:50;;;;;;;13.60;8.47;;;;;;;-1.51;100.00;97617.78;4997334;28;20430;-75
2022/01/26 03:21:06;;;;;;;10.80;9.07;;;;;;;-1.47;100.00;97623.31;5013165;28;20876;-75
2022/01/26 03:32:18;;;;;;;13.37;9.73;;;;;;;-1.40;100.00;97636.22;5015233;28;20463;-77
2022/01/26 03:34:27;;;;;;;11.93;7.80;;;;;;;-1.35;100.00;97651.94;5012985;28;20495;-75
2022/01/26 03:36:58;;;;;;;10.50;8.30;;;;;;;-1.68;100.00;97590.06;5012890;28;20445;-75
2022/01/26 03:39:26;;;;;;;13.07;9.47;;;;;;;-1.71;100.00;97593.09;5013040;28;20435;-75
2022/01/26 03:42:05;;;;;;;10.80;8.93;;;;;;;-1.52;100.00;97634.34;4996718;28;20471;-76
2022/01/26 03:44:32;;;;;;;14.87;10.23;;;;;;;-1.45;100.00;97646.47;5012851;28;20537;-76
2022/01/26 03:46:59;;;;;;;17.37;10.20;;;;;;;-1.62;100.00;97615.13;4996772;28;20561;-76
2022/01/26 03:49:26;;;;;;;13.93;8.27;;;;;;;-1.54;100.00;97622.63;5014640;28;20435;-76
2022/01/26 03:51:53;;;;;;;12.30;8.73;;;;;;;-1.73;100.00;97587.34;5015209;28;20498;-76
2022/01/26 03:54:21;;;;;;;10.90;9.60;;;;;;;-1.37;100.00;97641.78;4996177;28;20495;-77
2022/01/26 03:56:47;;;;;;;14.53;8.60;;;;;;;-1.86;100.00;97575.31;4996243;28;20473;-75
2022/01/26 03:59:14;;;;;;;10.87;8.27;;;;;;;-1.50;100.00;97636.72;5012282;28;20475;-75
2022/01/26 04:01:41;;;;;;;21.73;11.60;;;;;;;-1.47;100.00;97638.88;5013595;28;20795;-75
2022/01/26 04:04:08;;;;;;;12.93;9.47;;;;;;;-1.61;100.00;97614.91;5012552;28;20465;-75
2022/01/26 04:06:35;;;;;;;10.40;8.00;;;;;;;-1.57;100.00;97625.66;5013420;28;20517;-75
2022/01/26 04:09:06;;;;;;;14.03;8.23;;;;;;;-1.72;100.00;97604.47;4995943;28;20477;-76
2022/01/26 04:11:38;;;;;;;12.03;8.40;;;;;;;-1.89;100.00;97596.47;4995924;28;20459;-75
2022/01/26 04:14:12;;;;;;;12.27;8.10;;;;;;;-1.82;100.00;97642.06;5011909;28;20467;-75
2022/01/26 04:16:40;;;;;;;13.37;9.67;;;;;;;-2.07;100.00;97607.59;5012405;28;20470;-76
2022/01/26 04:19:08;;;;;;;13.93;9.40;;;;;;;-1.91;100.00;97622.59;5011653;28;20972;-75
2022/01/26 04:21:42;;;;;;;14.03;9.77;;;;;;;-1.51;100.00;97653.31;5013577;28;20459;-76
2022/01/26 04:24:29;;;;;;;11.63;8.97;;;;;;;-1.43;100.00;97652.22;5013259;28;20977;-76
2022/01/26 04:27:01;;;;;;;11.90;9.40;;;;;;;-1.46;100.00;97635.31;5013287;28;20971;-77
2022/01/26 04:29:31;;;;;;;13.93;9.30;;;;;;;-1.32;100.00;97630.75;5013242;28;20469;-75
2022/01/26 04:31:59;;;;;;;11.53;8.47;;;;;;;-1.31;100.00;97653.09;5011620;28;20470;-75
2022/01/26 04:34:28;;;;;;;13.00;9.37;;;;;;;-1.47;100.00;97649.25;4995719;28;20466;-75
2022/01/26 04:37:06;;;;;;;12.80;10.43;;;;;;;-1.43;100.00;97650.44;5013176;28;20435;-76
2022/01/26 04:39:40;;;;;;;17.90;10.10;;;;;;;-1.33;100.00;97652.53;5012235;28;20463;-76
2022/01/26 04:42:15;;;;;;;12.57;9.60;;;;;;;-1.68;100.00;97647.91;4995471;28;20869;-76
2022/01/26 04:44:51;;;;;;;15.77;10.30;;;;;;;-1.83;100.00;97606.78;5011537;28;20458;-75
2022/01/26 04:47:18;;;;;;;13.23;10.43;;;;;;;-1.79;100.00;97620.09;5011580;28;20489;-76
2022/01/26 04:49:45;;;;;;;18.43;10.67;;;;;;;-1.86;100.00;97602.03;5011262;28;20450;-76
2022/01/26 04:52:11;;;;;;;14.47;10.23;;;;;;;-1.79;100.00;97576.03;5011340;28;20481;-75
2022/01/26 04:54:38;;;;;;;14.97;9.83;;;;;;;-1.51;100.00;97614.41;4994817;28;20558;-75
2022/01/26 04:57:05;;;;;;;13.53;10.57;;;;;;;-1.72;100.00;97614.84;5011240;28;20537;-76
2022/01/26 04:59:31;;;;;;;12.67;8.00;;;;;;;-1.63;100.00;97623.91;5011221;28;20990;-76
2022/01/26 05:01:58;;;;;;;14.10;9.27;;;;;;;-1.99;100.00;97588.41;5011272;28;20439;-75
2022/01/26 05:04:25;;;;;;;13.90;9.50;;;;;;;-1.79;100.00;97594.16;5012439;28;20450;-76
2022/01/26 05:06:51;;;;;;;16.93;10.00;;;;;;;-1.44;100.00;97624.72;5011329;28;20559;-76
2022/01/26 05:09:22;;;;;;;14.10;10.10;;;;;;;-1.58;100.00;97592.97;4995010;28;20471;-75
2022/01/26 05:11:51;;;;;;;15.30;8.73;;;;;;;-1.39;100.00;97619.66;5012561;28;20522;-75
2022/01/26 05:14:18;;;;;;;13.13;9.47;;;;;;;-1.52;100.00;97618.00;4994793;28;20512;-75
2022/01/26 05:16:45;;;;;;;16.00;9.70;;;;;;;-1.58;100.00;97598.16;5011115;28;20484;-75
2022/01/26 05:19:11;;;;;;;11.00;9.60;;;;;;;-1.48;100.00;97619.16;5012897;28;20434;-75
2022/01/26 05:21:40;;;;;;;11.30;8.93;;;;;;;-1.68;100.00;97590.06;4994940;28;20466;-76
2022/01/26 05:24:08;;;;;;;15.53;10.63;;;;;;;-1.64;100.00;97604.97;5012500;28;20490;-75
2022/01/26 05:26:34;;;;;;;12.80;10.10;;;;;;;-1.66;100.00;97590.66;5010954;28;20517;-75
2022/01/26 05:29:01;;;;;;;15.10;10.43;;;;;;;-1.68;100.00;97597.84;5012319;28;20431;-76
2022/01/26 05:31:28;;;;;;;12.77;9.27;;;;;;;-1.67;100.00;97589.06;5010625;28;20427;-76
2022/01/26 05:33:55;;;;;;;17.63;10.60;;;;;;;-1.77;100.00;97568.03;5010632;28;20558;-75
2022/01/26 05:36:22;;;;;;;19.10;11.17;;;;;;;-2.03;100.00;97518.06;4994747;28;20534;-76
2022/01/26 05:38:49;;;;;;;17.17;11.10;;;;;;;-1.61;100.00;97580.41;5010846;28;20439;-76
2022/01/26 05:41:16;;;;;;;11.07;8.77;;;;;;;-1.69;100.00;97573.72;5012050;28;20886;-75
2022/01/26 05:43:43;;;;;;;15.53;9.90;;;;;;;-1.54;100.00;97597.47;5011663;28;20459;-75
2022/01/26 05:46:20;;;;;;;13.33;8.60;;;;;;;-1.68;100.00;97579.69;5011737;28;20463;-76
2022/01/26 05:48:49;;;;;;;14.40;11.33;;;;;;;-1.68;100.00;97575.31;5010700;28;20908;-75
2022/01/26 05:51:16;;;;;;;15.43;10.43;;;;;;;-1.56;100.00;97590.94;5011813;28;20431;-77
2022/01/26 05:53:43;;;;;;;16.03;12.27;;;;;;;-1.61;100.00;97594.16;4994128;28;20462;-76
2022/01/26 05:56:10;;;;;;;67.67;34.93;;;;;;;-1.65;100.00;97598.22;5010838;28;20426;-76
2022/01/26 05:58:37;;;;;;;12.90;10.73;;;;;;;-1.59;100.00;97612.91;5010409;28;20554;-76
2022/01/26 06:01:04;;;;;;;13.70;10.23;;;;;;;-1.67;100.00;97602.81;5010653;28;20536;-76
2022/01/26 06:03:32;;;;;;;13.27;9.67;;;;;;;-1.85;100.00;97585.47;4994168;28;20463;-76
2022/01/26 06:05:58;;;;;;;18.63;13.00;;;;;;;-1.72;100.00;97579.34;4994177;28;21093;-75
2022/01/26 06:08:25;;;;;;;13.93;11.77;;;;;;;-1.43;100.00;97593.38;4994057;28;20489;-75
2022/01/26 06:10:55;;;;;;;16.80;10.93;;;;;;;-1.62;100.00;97573.63;4993775;28;20538;-75
2022/01/26 06:13:22;;;;;;;17.33;10.43;;;;;;;-1.70;100.00;97563.59;4994064;28;20490;-75
2022/01/26 06:15:49;;;;;;;15.40;11.13;;;;;;;-1.55;100.00;97600.28;4993829;28;20443;-75
2022/01/26 06:18:16;;;;;;;14.07;10.87;;;;;;;-1.68;100.00;97579.69;5010265;28;20443;-76
2022/01/26 06:20:43;;;;;;;16.50;11.10;;;;;;;-1.62;100.00;97605.53;4993702;28;20474;-75
2022/01/26 06:23:09;;;;;;;11.83;9.67;;;;;;;-1.77;100.00;97575.81;5011276;28;20498;-76
2022/01/26 06:25:36;;;;;;;18.23;10.90;;;;;;;-1.85;100.00;97563.94;5009972;28;20501;-75
2022/01/26 06:28:07;;;;;;;17.50;11.67;;;;;;;-1.75;100.00;97578.97;5010030;28;20450;-76
2022/01/26 06:30:35;;;;;;;26.00;17.30;;;;;;;-1.74;100.00;97558.00;5011303;28;20447;-76
2022/01/26 06:33:02;;;;;;;20.97;13.30;;;;;;;-1.85;100.00;97556.16;5009657;28;20478;-77
2022/01/26 06:35:29;;;;;;;20.50;13.90;;;;;;;-1.76;100.00;97572.22;5010060;28;20813;-75
2022/01/26 06:37:56;;;;;;;23.27;16.73;;;;;;;-1.79;100.00;97576.81;4993724;28;20497;-75
2022/01/26 06:40:24;;;;;;;36.27;30.33;;;;;;;-1.85;100.00;97569.91;5009845;28;20477;-75
2022/01/26 06:42:57;;;;;;;50.10;35.70;;;;;;;-1.71;100.00;97570.56;4997717;28;21069;-76
2022/01/26 06:45:27;;;;;;;16.43;12.67;;;;;;;-2.04;100.00;97521.69;5013675;28;20466;-75
2022/01/26 06:50:40;;;;;;;20.63;14.90;;;;;;;-1.70;100.00;97608.44;5014343;28;20474;-75
2022/01/26 06:53:07;;;;;;;13.40;10.87;;;;;;;-1.75;100.00;97604.91;4997258;28;20470;-75
2022/01/26 06:55:35;;;;;;;17.20;11.87;;;;;;;-1.70;100.00;97621.41;5014898;28;20444;-75
2022/01/26 06:58:03;;;;;;;14.50;10.00;;;;;;;-1.81;100.00;97598.78;5013483;28;20884;-75
2022/01/26 07:00:30;;;;;;;13.17;9.87;;;;;;;-1.89;100.00;97578.31;5013736;28;20537;-75
2022/01/26 07:02:57;;;;;;;18.33;11.93;;;;;;;-1.67;100.00;97610.59;5014693;28;20950;-75
2022/01/26 07:05:24;;;;;;;16.53;11.90;;;;;;;-1.74;100.00;97598.69;5013369;28;20525;-75
2022/01/26 07:07:51;;;;;;;13.20;10.47;;;;;;;-1.77;100.00;97592.16;4997072;28;20566;-75
2022/01/26 07:10:17;;;;;;;15.23;9.37;;;;;;;-1.95;100.00;97574.00;5013174;28;20446;-75
2022/01/26 07:12:44;;;;;;;17.50;11.03;;;;;;;-2.05;100.00;97568.53;5014553;28;20435;-75
2022/01/26 07:23:31;;;;;;;14.37;11.13;;;;;;;-2.24;100.00;97521.09;5012982;28;20494;-75
2022/01/26 07:25:57;;;;;;;16.40;10.90;;;;;;;-1.72;100.00;97599.31;5013037;28;20512;-75
2022/01/26 07:28:24;;;;;;;17.47;12.10;;;;;;;-1.99;100.00;97546.97;5014312;28;20465;-75
2022/01/26 07:30:51;;;;;;;15.60;9.50;;;;;;;-1.83;100.00;97569.69;5012951;28;20474;-75
2022/01/26 07:33:17;;;;;;;13.40;9.33;;;;;;;-1.69;100.00;97604.84;5014101;28;20502;-75
2022/01/26 07:35:44;;;;;;;16.87;10.87;;;;;;;-1.59;100.00;97607.72;5012832;28;20431;-75
2022/01/26 07:38:11;;;;;;;16.63;10.57;;;;;;;-1.50;100.00;97609.00;4996644;28;20442;-75
2022/01/26 07:40:39;;;;;;;16.37;10.27;;;;;;;-1.47;100.00;97620.72;5014246;28;20932;-75
2022/01/26 07:43:06;;;;;;;13.17;10.47;;;;;;;-1.79;100.00;97571.63;5012712;28;20501;-75
2022/01/26 07:45:32;;;;;;;14.70;9.10;;;;;;;-1.59;100.00;97607.72;5012713;28;20549;-75
2022/01/26 07:47:59;;;;;;;13.50;8.70;;;;;;;-1.58;100.00;97624.06;5013965;28;20478;-75
2022/01/26 07:50:26;;;;;;;17.23;10.83;;;;;;;-1.66;100.00;97630.31;4996385;28;20443;-75
2022/01/26 07:52:52;;;;;;;17.77;9.37;;;;;;;-2.40;100.00;97550.94;5011575;28;20435;-75
2022/01/26 07:55:21;;;;;;;15.80;10.37;;;;;;;-2.01;100.00;97601.56;5012446;28;20522;-75
2022/01/26 07:57:50;;;;;;;18.93;9.47;;;;;;;-1.94;100.00;97576.38;5012377;28;20489;-75
2022/01/26 08:00:19;;;;;;;13.53;9.40;;;;;;;-1.69;100.00;97622.19;5012494;28;20439;-75
2022/01/26 08:02:47;;;;;;;15.20;10.30;;;;;;;-1.72;100.00;97597.50;5012308;28;20439;-75
2022/01/26 08:05:15;;;;;;;12.77;9.47;;;;;;;-1.48;100.00;97629.53;5013593;28;20535;-75
2022/01/26 08:07:42;;;;;;;15.57;10.30;;;;;;;-1.55;100.00;97628.81;5012180;28;21078;-75
2022/01/26 08:10:11;;;;;;;15.97;9.70;;;;;;;-1.72;100.00;97601.91;4996054;28;20439;-75
2022/01/26 08:12:39;;;;;;;13.20;9.57;;;;;;;-1.60;100.00;97616.50;5012201;28;20483;-75
2022/01/26 08:15:25;;;;;;;17.30;9.90;;;;;;;-1.66;100.00;97601.00;4998569;28;20427;-75
2022/01/26 08:17:52;;;;;;;14.30;9.93;;;;;;;-1.51;100.00;97625.56;5012052;28;20447;-75
2022/01/26 08:20:21;;;;;;;11.97;8.67;;;;;;;-1.83;100.00;97582.66;5012152;28;21042;-75
2022/01/26 08:22:49;;;;;;;12.47;9.67;;;;;;;-1.77;100.00;97597.34;5011916;28;20439;-75
2022/01/26 08:25:16;;;;;;;10.50;8.20;;;;;;;-2.00;100.00;97572.06;5013307;28;20485;-75
2022/01/26 08:27:48;;;;;;;15.60;10.20;;;;;;;-1.70;100.00;97621.41;5013086;28;20505;-75
2022/01/26 08:30:18;;;;;;;12.80;9.57;;;;;;;-1.69;100.00;97627.38;4995713;28;20470;-75
2022/01/26 08:32:45;;;;;;;15.47;10.60;;;;;;;-1.70;100.00;97636.16;4995469;28;20939;-75
2022/01/26 08:35:12;;;;;;;15.93;11.07;;;;;;;-1.99;100.00;97583.22;5012048;28;20969;-75
2022/01/26 08:37:39;;;;;;;17.90;11.73;;;;;;;-1.96;100.00;97577.63;5011838;28;20504;-75
2022/01/26 08:40:06;;;;;;;14.80;10.97;;;;;;;-1.88;100.00;97585.09;5012931;28;20965;-75
2022/01/26 08:42:33;;;;;;;15.27;10.80;;;;;;;-1.54;100.00;97633.78;4995535;28;20474;-75
2022/01/26 08:45:00;;;;;;;13.93;9.83;;;;;;;-1.71;100.00;97614.63;5011442;28;21032;-75
2022/01/26 08:47:26;;;;;;;20.63;11.70;;;;;;;-1.63;100.00;97610.94;5011377;28;21082;-75
2022/01/26 08:49:53;;;;;;;15.40;8.40;;;;;;;-1.66;100.00;97629.53;4995343;28;20489;-75
2022/01/26 08:52:20;;;;;;;14.07;9.43;;;;;;;-1.59;100.00;97628.47;4995344;28;20443;-75
2022/01/26 08:54:46;;;;;;;15.17;9.93;;;;;;;-1.65;100.00;97608.56;4995358;28;20578;-75
2022/01/26 08:57:13;;;;;;;13.47;8.37;;;;;;;-1.43;100.00;97634.09;4995415;28;20459;-75
2022/01/26 08:59:40;;;;;;;17.47;8.90;;;;;;;-1.61;100.00;97577.81;4995306;28;20483;-75
2022/01/26 09:02:08;;;;;;;15.73;10.50;;;;;;;-1.40;100.00;97610.31;5011126;28;20950;-75
2022/01/26 09:04:35;;;;;;;15.20;10.07;;;;;;;-1.69;100.00;97571.13;5011086;28;20463;-75
2022/01/26 09:07:03;;;;;;;18.87;9.70;;;;;;;-1.62;100.00;97589.97;5011572;28;20581;-75
2022/01/26 09:09:41;;;;;;;12.77;9.10;;;;;;;-1.46;100.00;97618.97;5011161;28;20581;-75
2022/01/26 09:12:10;;;;;;;12.57;8.70;;;;;;;-1.40;100.00;97620.66;5011096;28;20441;-75
2022/01/26 09:14:37;;;;;;;13.50;10.60;;;;;;;-1.41;100.00;97613.91;5011232;28;20921;-75
2022/01/26 09:17:05;;;;;;;14.23;9.30;;;;;;;-1.41;100.00;97614.69;4995066;28;20474;-75
2022/01/26 09:19:33;;;;;;;18.23;8.70;;;;;;;-1.41;100.00;97635.44;4994867;28;20442;-75
2022/01/26 09:22:04;;;;;;;13.60;9.03;;;;;;;-1.29;100.00;97631.13;5012526;28;20514;-75
2022/01/26 09:24:32;;;;;;;12.87;10.03;;;;;;;-1.23;100.00;97630.22;5010898;28;20888;-75
2022/01/26 09:27:00;;;;;;;15.50;10.40;;;;;;;-1.28;100.00;97627.50;4994727;28;20465;-76
2022/01/26 09:29:27;;;;;;;17.30;11.30;;;;;;;-1.17;100.00;97632.97;5012305;28;20435;-76
2022/01/26 09:31:54;;;;;;;18.90;10.73;;;;;;;-1.25;100.00;97629.66;5011045;28;21025;-75
2022/01/26 09:34:24;;;;;;;17.87;11.07;;;;;;;-1.51;100.00;97591.06;5010591;28;20466;-75
2022/01/26 09:36:51;;;;;;;21.20;9.80;;;;;;;-1.43;100.00;97602.97;5010783;28;20478;-75
2022/01/26 09:39:20;;;;;;;17.00;12.47;;;;;;;-1.38;100.00;97601.28;5011141;28;20545;-75
2022/01/26 09:41:48;;;;;;;20.67;13.30;;;;;;;-1.23;100.00;97617.25;5010894;28;20473;-75
2022/01/26 09:44:17;;;;;;;12.60;9.70;;;;;;;-1.23;100.00;97617.25;5010621;28;20913;-75
2022/01/26 09:46:45;;;;;;;17.00;10.80;;;;;;;-1.40;100.00;97590.34;5011966;28;20463;-75
2022/01/26 09:49:17;;;;;;;15.27;9.97;;;;;;;-1.31;100.00;97602.00;5010494;28;20455;-75
2022/01/26 09:51:48;;;;;;;11.87;10.20;;;;;;;-1.51;100.00;97591.84;4994283;28;20466;-75
2022/01/26 09:54:17;;;;;;;19.20;10.23;;;;;;;-1.45;100.00;97592.00;5010442;28;20516;-75
2022/01/26 09:56:46;;;;;;;14.73;9.73;;;;;;;-1.38;100.00;97616.06;5011752;28;20454;-75
2022/01/26 09:59:15;;;;;;;18.03;10.87;;;;;;;-1.37;100.00;97622.81;4994122;28;20439;-75
2022/01/26 10:01:47;;;;;;;15.53;10.77;;;;;;;-1.34;100.00;97630.97;5010521;28;20445;-75
2022/01/26 10:04:19;;;;;;;11.93;8.60;;;;;;;-1.50;100.00;97597.84;4994174;28;20465;-75
2022/01/26 10:06:50;;;;;;;16.60;12.07;;;;;;;-1.50;100.00;97588.25;4994197;28;20505;-75
2022/01/26 10:17:41;;;;;;;16.10;10.57;;;;;;;-1.61;100.00;97599.34;5010104;28;20463;-75
2022/01/26 10:20:10;;;;;;;18.63;12.20;;;;;;;-1.37;100.00;97635.78;5010289;28;20442;-75
2022/01/26 10:22:37;;;;;;;16.83;12.40;;;;;;;-1.63;100.00;97603.16;5010182;28;20561;-75
2022/01/26 10:25:12;;;;;;;24.67;11.97;;;;;;;-1.46;100.00;97622.34;4993957;28;20888;-75
2022/01/26 10:27:59;;;;;;;21.50;15.67;;;;;;;-1.46;100.00;97609.38;5010397;28;20451;-75
2022/01/26 10:30:26;;;;;;;20.60;15.03;;;;;;;-1.41;100.00;97616.50;5010215;28;20526;-74
2022/01/26 10:32:54;;;;;;;24.37;12.80;;;;;;;-1.43;100.00;97597.78;5009930;28;20533;-75
2022/01/26 10:35:21;;;;;;;24.07;12.83;;;;;;;-1.45;100.00;97616.16;4995480;28;20486;-74
2022/01/26 10:37:56;;;;;;;21.83;13.77;;;;;;;-1.46;100.00;97619.75;5006626;28;20454;-75
2022/01/26 10:40:26;;;;;;;18.30;11.80;;;;;;;-1.43;100.00;97632.28;5002356;28;20801;-75
2022/01/26 10:43:05;;;;;;;27.87;15.70;;;;;;;-1.42;100.00;97640.84;5010780;28;20806;-75
2022/01/26 10:49:05;;;;;;;22.03;10.40;;;;;;;-1.46;100.00;97626.75;5014488;28;20830;-74
2022/01/26 10:53:57;;;;;;;15.20;11.30;;;;;;;-1.67;100.00;97607.22;5012192;28;20478;-74
2022/01/26 10:56:26;;;;;;;23.50;14.80;;;;;;;-1.45;100.00;97621.34;5013026;28;20449;-74
2022/01/26 10:59:02;;;;;;;21.30;13.33;;;;;;;-1.71;100.00;97580.16;5019089;28;21002;-74
2022/01/26 11:01:29;;;;;;;14.63;10.27;;;;;;;-1.48;100.00;97599.19;5010588;28;20944;-74
2022/01/26 11:03:56;;;;;;;16.50;12.20;;;;;;;-1.54;100.00;97581.13;5010253;28;20459;-74
2022/01/26 11:06:22;;;;;;;19.60;13.20;;;;;;;-1.57;100.00;97573.78;5010143;28;20501;-74
2022/01/26 11:08:50;;;;;;;22.10;11.33;;;;;;;-1.34;100.00;97612.00;4999441;28;20879;-74
2022/01/26 11:11:26;;;;;;;20.03;12.77;;;;;;;-1.37;100.00;97612.44;5017900;28;20931;-74
2022/01/26 11:13:55;;;;;;;13.97;10.10;;;;;;;-1.32;100.00;97612.59;5012171;28;20485;-75
2022/01/26 11:16:54;;;;;;;17.80;11.80;;;;;;;-1.31;100.00;97616.78;5016484;28;20525;-74
2022/01/26 11:19:23;;;;;;;21.20;11.40;;;;;;;-2.08;100.00;97498.00;4999038;28;20439;-74
2022/01/26 11:21:50;;;;;;;17.93;11.53;;;;;;;-1.44;100.00;97591.78;5014941;28;20447;-75
2022/01/26 11:24:48;;;;;;;17.57;11.13;;;;;;;-1.37;100.00;97599.47;5000942;28;20458;-75
2022/01/26 11:27:17;;;;;;;18.20;12.77;;;;;;;-1.39;100.00;97604.88;5011108;28;20502;-75
2022/01/26 11:29:47;;;;;;;25.30;12.80;;;;;;;-1.39;100.00;97568.56;5012720;28;20521;-75
2022/01/26 11:32:30;;;;;;;20.63;12.30;;;;;;;-1.17;100.00;97581.09;4997028;28;20439;-75
2022/01/26 11:34:58;;;;;;;14.97;11.20;;;;;;;-1.20;100.00;97575.34;5013020;28;20466;-75
2022/01/26 11:37:28;;;;;;;16.47;12.63;;;;;;;-1.16;100.00;97572.28;4996718;28;20474;-75
2022/01/26 11:45:26;;;;;;;16.97;12.37;;;;;;;-1.42;100.00;97568.22;5014367;28;20927;-75
2022/01/26 11:48:09;;;;;;;17.27;12.63;;;;;;;-1.56;100.00;97539.06;5016340;28;20474;-75
2022/01/26 11:50:39;;;;;;;14.93;11.33;;;;;;;-1.34;100.00;97586.84;5013168;28;20501;-75
2022/01/26 11:53:11;;;;;;;14.23;11.20;;;;;;;-1.51;100.00;97562.53;5012768;28;20494;-75
2022/01/26 11:55:48;;;;;;;27.67;10.50;;;;;;;-1.42;100.00;97570.81;5012931;28;20522;-75
2022/01/26 11:58:30;;;;;;;18.13;11.73;;;;;;;-1.55;100.00;97551.81;5013036;28;20464;-75
2022/01/26 12:03:43;;;;;;;17.17;10.20;;;;;;;-1.77;100.00;97534.34;5014054;28;21007;-75
2022/01/26 12:06:50;;;;;;;21.20;13.53;;;;;;;-1.62;100.00;97582.22;5014676;28;20431;-75
2022/01/26 12:09:07;;;;;;;21.87;14.37;;;;;;;-1.49;100.00;97586.44;5026903;28;20474;-75
2022/01/26 12:11:34;;;;;;;17.43;12.47;;;;;;;-1.76;100.00;97557.44;5018638;28;20820;-75
2022/01/26 12:14:07;;;;;;;20.03;13.37;;;;;;;-1.53;100.00;97593.09;5014175;28;20481;-75
2022/01/26 12:16:41;;;;;;;22.77;13.80;;;;;;;-1.45;100.00;97600.59;4996884;28;20869;-74
2022/01/26 12:38:26;;;;;;;21.57;13.37;;;;;;;-1.43;100.00;97577.81;5012189;28;20852;-75
2022/01/26 12:43:40;;;;;;;20.47;13.67;;;;;;;-1.76;100.00;97560.03;5013491;28;20492;-75
2022/01/26 12:46:10;;;;;;;24.03;16.53;;;;;;;-1.85;100.00;97519.88;4995480;28;20447;-75
2022/01/26 12:48:40;;;;;;;25.83;14.30;;;;;;;-2.02;100.00;97511.09;4995768;28;20469;-75
2022/01/26 12:51:08;;;;;;;20.33;13.47;;;;;;;-1.85;100.00;97545.81;5011564;28;20482;-75
2022/01/26 12:53:37;;;;;;;22.10;12.87;;;;;;;-1.92;100.00;97548.44;4995450;28;21059;-75
2022/01/26 12:56:10;;;;;;;27.23;14.83;;;;;;;-2.19;100.00;97479.78;5011609;28;20486;-75
2022/01/26 12:58:41;;;;;;;28.77;14.83;;;;;;;-1.46;100.00;97582.66;5011698;28;20415;-75
2022/01/26 13:01:19;;;;;;;23.33;16.17;;;;;;;-1.23;100.00;97577.56;5012738;28;20426;-75
2022/01/26 13:03:48;;;;;;;20.93;13.27;;;;;;;-1.23;100.00;97575.75;5011418;28;20570;-76
2022/01/26 13:06:29;;;;;;;23.03;14.17;;;;;;;-1.16;100.00;97578.28;5012847;28;20485;-76
2022/01/26 13:08:58;;;;;;;18.77;12.67;;;;;;;-1.26;100.00;97591.75;5013241;28;20485;-76
2022/01/26 13:11:34;;;;;;;23.10;14.40;;;;;;;-1.35;100.00;97576.69;4996702;28;20439;-76
2022/01/26 13:14:13;;;;;;;23.27;13.23;;;;;;;-1.30;100.00;97582.06;4995331;28;20520;-76
2022/01/26 13:16:53;;;;;;;22.43;13.23;;;;;;;-1.44;100.00;97568.44;5011843;28;20439;-76
2022/01/26 13:19:43;;;;;;;17.67;12.40;;;;;;;-1.46;100.00;97569.69;5012638;28;20419;-76
2022/01/26 13:27:34;;;;;;;22.23;13.10;;;;;;;-1.56;100.00;97576.16;5011055;28;20489;-75
2022/01/26 13:30:39;;;;;;;21.90;15.17;;;;;;;-1.57;100.00;97553.06;5011171;28;20451;-75
2022/01/26 13:51:43;;;;;;;19.60;13.23;;;;;;;-1.84;100.00;97571.50;4953736;28;20445;-75
2022/01/26 13:56:51;;;;;;;25.87;15.53;;;;;;;-1.72;100.00;97589.72;5010722;28;20473;-75
2022/01/26 14:01:49;;;;;;;23.63;13.57;;;;;;;-1.46;100.00;97591.22;5010386;28;20817;-73
2022/01/26 14:04:17;;;;;;;26.70;15.87;;;;;;;-1.30;100.00;97611.38;4994184;28;20494;-73
2022/01/26 14:06:45;;;;;;;25.80;17.47;;;;;;;-1.33;100.00;97611.81;5010380;28;20475;-73
2022/01/26 14:09:13;;;;;;;22.20;14.33;;;;;;;-1.34;100.00;97601.63;5010450;28;20973;-73
2022/01/26 14:11:40;;;;;;;22.90;15.17;;;;;;;-1.26;100.00;97616.91;5011694;28;20443;-73
2022/01/26 14:14:09;;;;;;;24.37;16.80;;;;;;;-1.30;100.00;97595.03;5011936;28;20516;-73